createdAt,value
2023-04-10T00:00:38.139Z,19.90
2023-04-10T00:03:06.227Z,17.65
2023-04-10T00:05:33.617Z,17.75
2023-04-10T00:08:00.961Z,19.77
2023-04-10T00:10:31.682Z,18.20
2023-04-10T00:13:00.750Z,18.38
2023-04-10T00:15:28.762Z,17.95
2023-04-10T00:17:56.033Z,17.75
2023-04-10T00:20:23.810Z,17.48
2023-04-10T00:22:50.901Z,18.67
2023-04-10T00:25:18.012Z,22.65
2023-04-10T00:27:45.514Z,19.98
2023-04-10T00:30:12.604Z,18.48
2023-04-10T00:32:39.684Z,20.00
2023-04-10T00:35:08.258Z,20.10
2023-04-10T00:37:35.725Z,22.38
2023-04-10T00:40:03.253Z,18.05
2023-04-10T00:42:30.495Z,18.42
2023-04-10T00:44:57.559Z,20.95
2023-04-10T00:47:25.687Z,20.70
2023-04-10T00:49:53.547Z,19.55
2023-04-10T00:52:20.580Z,18.83
2023-04-10T00:54:47.674Z,18.92
2023-04-10T00:57:14.787Z,19.90
2023-04-10T00:59:41.975Z,19.47
2023-04-10T01:02:10.310Z,19.27
2023-04-10T01:04:38.080Z,18.65
2023-04-10T01:07:43.102Z,19.55
2023-04-10T01:10:31.473Z,19.80
2023-04-10T01:13:16.972Z,20.10
2023-04-10T01:15:51.982Z,19.02
2023-04-10T01:18:34.598Z,19.60
2023-04-10T01:21:04.055Z,19.55
2023-04-10T01:23:42.598Z,18.55
2023-04-10T01:26:18.153Z,18.23
2023-04-10T01:29:05.256Z,23.15
2023-04-10T01:31:56.733Z,20.90
2023-04-10T01:34:27.947Z,20.45
2023-04-10T01:37:02.793Z,19.40
2023-04-10T01:39:31.370Z,22.53
2023-04-10T01:42:00.777Z,18.63
2023-04-10T01:44:30.382Z,18.70
2023-04-10T01:46:58.465Z,18.33
2023-04-10T01:49:27.570Z,19.05
2023-04-10T01:51:58.516Z,17.27
2023-04-10T01:54:32.207Z,18.65
2023-04-10T01:57:03.999Z,21.73
2023-04-10T01:59:31.506Z,18.63
2023-04-10T02:02:00.291Z,16.90
2023-04-10T02:04:28.787Z,23.63
2023-04-10T02:06:56.935Z,20.63
2023-04-10T02:09:42.711Z,18.90
2023-04-10T02:12:17.269Z,17.85
2023-04-10T02:14:47.480Z,19.65
2023-04-10T02:17:17.519Z,18.03
2023-04-10T02:19:48.691Z,18.70
2023-04-10T02:22:17.441Z,19.23
2023-04-10T02:24:45.617Z,17.17
2023-04-10T02:27:13.919Z,18.95
2023-04-10T02:29:42.680Z,19.40
2023-04-10T02:32:11.701Z,18.48
2023-04-10T02:34:39.941Z,18.90
2023-04-10T02:37:08.172Z,17.70
2023-04-10T02:39:37.326Z,19.08
2023-04-10T02:42:04.408Z,19.00
2023-04-10T02:44:32.193Z,20.60
2023-04-10T02:47:00.446Z,17.98
2023-04-10T02:49:28.158Z,22.10
2023-04-10T02:51:57.718Z,17.35
2023-04-10T02:54:26.348Z,18.03
2023-04-10T02:56:53.907Z,19.55
2023-04-10T02:59:21.885Z,19.10
2023-04-10T03:01:51.242Z,18.75
2023-04-10T03:04:20.051Z,17.92
2023-04-10T03:06:48.806Z,17.90
2023-04-10T03:09:16.787Z,17.67
2023-04-10T03:11:44.984Z,20.15
2023-04-10T03:14:12.876Z,18.33
2023-04-10T03:16:41.074Z,17.42
2023-04-10T03:19:09.725Z,18.80
2023-04-10T03:21:38.051Z,19.02
2023-04-10T03:24:06.332Z,19.55
2023-04-10T03:26:33.488Z,17.77
2023-04-10T03:29:00.647Z,18.77
2023-04-10T03:31:28.437Z,19.70
2023-04-10T03:33:56.199Z,20.88
2023-04-10T03:36:23.725Z,20.92
2023-04-10T03:38:52.838Z,17.48
2023-04-10T03:41:20.313Z,16.63
2023-04-10T03:43:47.344Z,19.97
2023-04-10T03:46:14.510Z,17.95
2023-04-10T03:48:41.829Z,17.15
2023-04-10T03:51:08.871Z,21.35
2023-04-10T03:53:36.379Z,19.60
2023-04-10T03:56:04.079Z,18.13
2023-04-10T03:58:31.116Z,17.63
2023-04-10T04:00:58.246Z,18.13
2023-04-10T04:03:25.621Z,17.60
2023-04-10T04:05:53.069Z,18.58
2023-04-10T04:08:20.568Z,18.37
2023-04-10T04:10:47.617Z,21.65
2023-04-10T04:13:15.427Z,18.10
2023-04-10T04:15:42.723Z,18.58
2023-04-10T04:18:10.526Z,21.77
2023-04-10T04:20:37.606Z,18.30
2023-04-10T04:23:04.637Z,16.85
2023-04-10T04:25:31.926Z,19.30
2023-04-10T04:27:58.960Z,19.40
2023-04-10T04:30:26.130Z,18.33
2023-04-10T04:32:53.548Z,17.43
2023-04-10T04:35:21.183Z,18.35
2023-04-10T04:37:48.218Z,17.77
2023-04-10T04:40:16.618Z,18.00
2023-04-10T04:42:43.647Z,20.33
2023-04-10T04:45:10.892Z,16.80
2023-04-10T04:47:37.947Z,16.98
2023-04-10T04:50:06.748Z,20.83
2023-04-10T04:52:36.104Z,16.60
2023-04-10T04:55:03.193Z,15.35
2023-04-10T04:57:30.328Z,19.83
2023-04-10T04:59:58.410Z,18.48
2023-04-10T05:02:26.003Z,18.85
2023-04-10T05:04:53.186Z,19.55
2023-04-10T05:07:20.628Z,17.95
2023-04-10T05:09:47.666Z,17.10
2023-04-10T05:12:14.913Z,16.27
2023-04-10T05:14:41.996Z,19.52
2023-04-10T05:17:09.411Z,17.30
2023-04-10T05:19:36.539Z,18.38
2023-04-10T05:22:03.934Z,17.97
2023-04-10T05:24:30.976Z,18.88
2023-04-10T05:26:57.992Z,16.45
2023-04-10T05:29:25.732Z,19.08
2023-04-10T05:31:53.506Z,18.00
2023-04-10T05:34:20.815Z,19.47
2023-04-10T05:36:47.945Z,20.15
2023-04-10T05:39:15.789Z,22.35
2023-04-10T05:41:42.942Z,18.98
2023-04-10T05:44:10.273Z,20.67
2023-04-10T05:46:37.385Z,17.67
2023-04-10T05:49:04.484Z,17.05
2023-04-10T05:51:33.132Z,19.15
2023-04-10T05:54:00.174Z,17.15
2023-04-10T05:56:27.519Z,19.10
2023-04-10T05:58:55.135Z,18.03
2023-04-10T06:01:22.401Z,16.08
2023-04-10T06:03:49.700Z,16.80
2023-04-10T06:06:17.315Z,17.33
2023-04-10T06:08:44.750Z,19.25
2023-04-10T06:11:11.862Z,21.33
2023-04-10T06:13:39.021Z,21.88
2023-04-10T06:16:06.408Z,19.08
2023-04-10T06:18:33.580Z,19.30
2023-04-10T06:21:01.988Z,17.23
2023-04-10T06:23:29.169Z,18.63
2023-04-10T06:25:56.400Z,18.20
2023-04-10T06:28:23.496Z,16.67
2023-04-10T06:30:50.624Z,20.65
2023-04-10T06:33:17.684Z,18.77
2023-04-10T06:35:45.180Z,18.57
2023-04-10T06:38:12.363Z,17.20
2023-04-10T06:40:39.414Z,18.58
2023-04-10T06:43:06.536Z,21.15
2023-04-10T06:45:33.545Z,17.52
2023-04-10T06:48:00.966Z,16.77
2023-04-10T06:50:28.428Z,18.88
2023-04-10T06:52:56.412Z,16.98
2023-04-10T06:55:23.801Z,16.15
2023-04-10T06:57:51.615Z,17.55
2023-04-10T07:00:19.454Z,18.40
2023-04-10T07:02:47.268Z,17.25
2023-04-10T07:05:14.859Z,16.77
2023-04-10T07:07:42.595Z,15.05
2023-04-10T07:10:10.032Z,19.98
2023-04-10T07:12:37.657Z,17.20
2023-04-10T07:15:05.479Z,17.92
2023-04-10T07:17:32.906Z,16.05
2023-04-10T07:20:00.179Z,17.25
2023-04-10T07:22:27.914Z,16.70
2023-04-10T07:24:54.967Z,17.17
2023-04-10T07:27:23.495Z,17.27
2023-04-10T07:29:52.305Z,18.63
2023-04-10T07:32:19.516Z,15.75
2023-04-10T07:34:47.415Z,16.92
2023-04-10T07:37:14.584Z,22.00
2023-04-10T07:39:41.653Z,18.27
2023-04-10T07:42:10.952Z,16.23
2023-04-10T07:44:37.999Z,17.17
2023-04-10T07:47:05.443Z,16.30
2023-04-10T07:49:32.546Z,18.17
2023-04-10T07:51:59.886Z,16.67
2023-04-10T07:54:27.299Z,15.15
2023-04-10T07:56:54.453Z,17.10
2023-04-10T07:59:22.357Z,16.00
2023-04-10T08:01:49.745Z,15.93
2023-04-10T08:04:17.117Z,16.73
2023-04-10T08:06:45.915Z,15.20
2023-04-10T08:09:13.698Z,14.77
2023-04-10T08:11:40.774Z,14.57
2023-04-10T08:14:07.910Z,16.37
2023-04-10T08:16:36.196Z,14.82
2023-04-10T08:19:03.441Z,16.08
2023-04-10T08:21:32.184Z,12.98
2023-04-10T08:24:01.807Z,14.45
2023-04-10T08:26:29.838Z,14.63
2023-04-10T08:28:58.343Z,14.23
2023-04-10T08:31:26.711Z,14.32
2023-04-10T08:33:53.943Z,11.73
2023-04-10T08:36:21.703Z,12.57
2023-04-10T08:38:49.149Z,11.30
2023-04-10T08:41:18.060Z,9.57
2023-04-10T08:43:46.209Z,11.27
2023-04-10T08:46:14.585Z,12.80
2023-04-10T08:48:48.685Z,12.88
2023-04-10T08:51:26.371Z,12.80
2023-04-10T08:53:59.442Z,12.70
2023-04-10T08:56:26.943Z,12.50
2023-04-10T08:58:54.105Z,10.43
2023-04-10T09:01:21.848Z,9.95
2023-04-10T09:03:49.142Z,10.20
2023-04-10T09:06:16.319Z,10.98
2023-04-10T09:08:43.383Z,12.05
2023-04-10T09:11:10.933Z,11.05
2023-04-10T09:13:40.361Z,12.88
2023-04-10T09:16:09.000Z,10.97
2023-04-10T09:18:50.827Z,11.75
2023-04-10T09:21:21.743Z,10.82
2023-04-10T09:23:49.381Z,14.00
2023-04-10T09:26:27.007Z,12.70
2023-04-10T09:28:58.774Z,10.30
2023-04-10T09:31:29.416Z,14.02
2023-04-10T09:34:07.068Z,13.52
2023-04-10T09:36:34.441Z,10.88
2023-04-10T09:39:01.649Z,11.15
2023-04-10T09:41:28.824Z,12.90
2023-04-10T09:44:09.762Z,13.02
2023-04-10T09:46:36.897Z,12.93
2023-04-10T09:49:07.509Z,11.02
2023-04-10T09:51:35.909Z,14.93
2023-04-10T09:54:03.872Z,11.30
2023-04-10T09:56:31.207Z,11.45
2023-04-10T09:59:00.200Z,12.18
2023-04-10T10:01:28.670Z,9.50
2023-04-10T10:03:56.673Z,12.60
2023-04-10T10:06:23.808Z,10.53
2023-04-10T10:08:50.961Z,10.02
2023-04-10T10:11:19.467Z,9.32
2023-04-10T10:13:57.208Z,10.35
2023-04-10T10:16:30.608Z,9.90
2023-04-10T10:19:03.885Z,10.00
2023-04-10T10:21:34.254Z,8.85
2023-04-10T10:24:03.094Z,10.60
2023-04-10T10:26:32.100Z,8.13
2023-04-10T10:28:59.261Z,7.80
2023-04-10T10:31:33.393Z,7.40
2023-04-10T10:34:04.735Z,10.60
2023-04-10T10:36:32.227Z,8.65
2023-04-10T10:39:24.153Z,9.85
2023-04-10T10:42:02.565Z,8.25
2023-04-10T10:44:42.690Z,9.23
2023-04-10T10:47:18.495Z,8.32
2023-04-10T10:49:53.175Z,8.95
2023-04-10T10:52:56.010Z,7.20
2023-04-10T10:55:23.210Z,6.65
2023-04-10T10:57:54.891Z,5.53
2023-04-10T11:00:23.338Z,8.48
2023-04-10T11:03:10.677Z,6.97
2023-04-10T11:06:02.268Z,5.68
2023-04-10T11:08:48.070Z,6.22
2023-04-10T11:11:25.875Z,7.47
2023-04-10T11:13:52.852Z,5.40
2023-04-10T11:16:20.843Z,6.63
2023-04-10T11:19:02.660Z,7.35
2023-04-10T11:22:01.046Z,7.97
2023-04-10T11:24:30.518Z,6.63
2023-04-10T11:26:58.911Z,6.30
2023-04-10T11:29:29.048Z,6.38
2023-04-10T11:31:58.013Z,6.82
2023-04-10T11:34:26.964Z,8.10
2023-04-10T11:36:54.539Z,8.17
2023-04-10T11:39:21.691Z,6.93
2023-04-10T11:41:50.805Z,7.18
2023-04-10T11:44:32.446Z,7.38
2023-04-10T11:47:00.201Z,7.07
2023-04-10T11:49:31.260Z,6.13
2023-04-10T11:51:58.747Z,5.93
2023-04-10T11:54:27.130Z,5.80
2023-04-10T11:57:12.990Z,6.57
2023-04-10T11:59:40.136Z,6.47
2023-04-10T12:02:09.418Z,7.57
2023-04-10T12:04:37.474Z,5.35
2023-04-10T12:07:04.955Z,6.80
2023-04-10T12:09:32.069Z,7.32
2023-04-10T12:12:00.757Z,6.15
2023-04-10T12:14:35.531Z,4.63
2023-04-10T12:17:04.515Z,5.82
2023-04-10T12:19:31.725Z,5.63
2023-04-10T12:21:59.183Z,5.30
2023-04-10T12:24:48.370Z,6.55
2023-04-10T12:27:18.656Z,7.97
2023-04-10T12:29:47.096Z,3.83
2023-04-10T12:32:14.522Z,5.97
2023-04-10T12:34:41.775Z,4.80
2023-04-10T12:37:09.998Z,5.18
2023-04-10T12:39:37.138Z,4.93
2023-04-10T12:42:21.225Z,5.25
2023-04-10T12:45:02.648Z,5.35
2023-04-10T12:47:29.844Z,5.05
2023-04-10T12:50:11.367Z,6.22
2023-04-10T12:52:40.780Z,4.07
2023-04-10T12:55:11.024Z,6.13
2023-04-10T12:57:39.117Z,6.03
2023-04-10T13:00:06.892Z,6.40
2023-04-10T13:02:34.145Z,5.75
2023-04-10T13:05:01.869Z,6.83
2023-04-10T13:07:28.948Z,5.45
2023-04-10T13:09:56.085Z,6.00
2023-04-10T13:12:23.779Z,6.65
2023-04-10T13:14:50.905Z,7.80
2023-04-10T13:17:17.946Z,6.00
2023-04-10T13:19:45.004Z,6.25
2023-04-10T13:22:12.021Z,5.88
2023-04-10T13:24:39.078Z,6.53
2023-04-10T13:27:06.261Z,5.20
2023-04-10T13:29:33.288Z,5.80
2023-04-10T13:32:01.234Z,6.30
2023-04-10T13:34:28.286Z,6.65
2023-04-10T13:36:55.499Z,6.05
2023-04-10T13:39:22.721Z,7.45
2023-04-10T13:41:50.073Z,5.53
2023-04-10T13:44:17.115Z,4.97
2023-04-10T13:46:44.401Z,5.43
2023-04-10T13:49:11.539Z,6.53
2023-04-10T13:51:38.578Z,6.22
2023-04-10T13:54:06.460Z,5.80
2023-04-10T13:56:33.689Z,6.57
2023-04-10T13:59:00.749Z,5.28
2023-04-10T14:01:27.870Z,5.05
2023-04-10T14:03:55.179Z,6.10
2023-04-10T14:06:22.368Z,6.87
2023-04-10T14:08:49.495Z,5.97
2023-04-10T14:11:16.769Z,6.63
2023-04-10T14:13:43.804Z,4.57
2023-04-10T14:16:12.243Z,6.30
2023-04-10T14:18:39.314Z,5.13
2023-04-10T14:21:07.818Z,6.85
2023-04-10T14:23:34.916Z,9.02
2023-04-10T14:26:01.961Z,4.65
2023-04-10T14:28:29.247Z,4.90
2023-04-10T14:30:56.330Z,6.67
2023-04-10T14:33:23.533Z,6.35
2023-04-10T14:35:50.783Z,6.15
2023-04-10T14:38:17.906Z,6.13
2023-04-10T14:40:48.524Z,6.18
2023-04-10T14:43:15.864Z,7.07
2023-04-10T14:45:42.961Z,5.43
2023-04-10T14:48:11.092Z,7.20
2023-04-10T14:50:38.275Z,5.45
2023-04-10T14:53:06.613Z,5.57
2023-04-10T14:55:35.316Z,7.37
2023-04-10T14:58:03.833Z,4.70
2023-04-10T15:00:32.582Z,6.57
2023-04-10T15:03:00.260Z,6.68
2023-04-10T15:05:27.980Z,6.07
2023-04-10T15:07:55.197Z,5.67
2023-04-10T15:10:22.695Z,5.20
2023-04-10T15:12:49.819Z,6.10
2023-04-10T15:15:17.855Z,5.35
2023-04-10T15:17:44.928Z,6.13
2023-04-10T15:20:12.340Z,5.73
2023-04-10T15:22:41.013Z,4.97
2023-04-10T15:25:11.943Z,6.43
2023-04-10T15:27:39.318Z,5.57
2023-04-10T15:30:06.848Z,6.90
2023-04-10T15:32:34.042Z,6.13
2023-04-10T15:35:01.120Z,5.65
2023-04-10T15:37:28.206Z,7.32
2023-04-10T15:39:55.245Z,6.13
2023-04-10T15:42:22.687Z,6.18
2023-04-10T15:44:50.203Z,6.50
2023-04-10T15:47:17.230Z,5.45
2023-04-10T15:49:44.484Z,6.07
2023-04-10T15:52:11.613Z,5.35
2023-04-10T15:54:39.699Z,5.78
2023-04-10T15:57:06.822Z,5.60
2023-04-10T15:59:35.357Z,5.85
2023-04-10T16:02:02.471Z,5.28
2023-04-10T16:04:30.946Z,5.72
2023-04-10T16:06:58.157Z,5.40
2023-04-10T16:09:26.700Z,6.47
2023-04-10T16:11:54.586Z,5.80
2023-04-10T16:14:22.553Z,8.00
2023-04-10T16:16:50.895Z,5.85
2023-04-10T16:19:17.979Z,5.57
2023-04-10T16:21:45.391Z,6.17
2023-04-10T16:24:12.416Z,5.00
2023-04-10T16:26:39.838Z,5.95
2023-04-10T16:29:06.921Z,6.93
2023-04-10T16:31:34.041Z,4.72
2023-04-10T16:34:01.292Z,6.63
2023-04-10T16:36:28.698Z,5.95
2023-04-10T16:38:55.877Z,6.13
2023-04-10T16:41:23.444Z,6.10
2023-04-10T16:43:50.535Z,7.10
2023-04-10T16:46:17.833Z,6.10
2023-04-10T16:48:44.942Z,6.30
2023-04-10T16:51:16.452Z,5.03
2023-04-10T16:53:44.074Z,6.18
2023-04-10T16:56:11.215Z,5.78
2023-04-10T16:58:38.606Z,7.70
2023-04-10T17:01:17.004Z,6.35
2023-04-10T17:03:45.156Z,6.72
2023-04-10T17:06:12.189Z,6.57
2023-04-10T17:08:39.346Z,7.10
2023-04-10T17:11:06.530Z,7.20
2023-04-10T17:13:35.618Z,7.03
2023-04-10T17:16:04.058Z,8.57
2023-04-10T17:18:31.449Z,9.60
2023-04-10T17:20:58.529Z,6.47
2023-04-10T17:23:25.715Z,5.57
2023-04-10T17:25:52.868Z,6.97
2023-04-10T17:28:20.012Z,7.55
2023-04-10T17:30:48.425Z,7.50
2023-04-10T17:33:15.490Z,6.88
2023-04-10T17:35:42.624Z,6.67
2023-04-10T17:38:09.665Z,6.82
2023-04-10T17:40:37.115Z,6.40
2023-04-10T17:43:04.228Z,7.78
2023-04-10T17:45:31.293Z,8.23
2023-04-10T17:47:58.552Z,5.50
2023-04-10T17:50:25.995Z,6.78
2023-04-10T17:52:53.056Z,7.40
2023-04-10T17:55:20.833Z,6.53
2023-04-10T17:57:48.902Z,7.47
2023-04-10T18:00:20.056Z,7.57
2023-04-10T18:02:48.669Z,6.65
2023-04-10T18:05:16.050Z,8.20
2023-04-10T18:07:43.130Z,7.35
2023-04-10T18:10:11.299Z,7.72
2023-04-10T18:12:40.390Z,8.30
2023-04-10T18:15:07.981Z,9.82
2023-04-10T18:17:38.777Z,8.20
2023-04-10T18:20:09.982Z,8.63
2023-04-10T18:22:37.042Z,7.60
2023-04-10T18:25:05.248Z,8.10
2023-04-10T18:27:34.624Z,7.10
2023-04-10T18:30:01.854Z,8.27
2023-04-10T18:32:28.959Z,8.32
2023-04-10T18:34:56.080Z,9.68
2023-04-10T18:37:23.137Z,6.47
2023-04-10T18:39:50.199Z,8.10
2023-04-10T18:42:17.716Z,7.30
2023-04-10T18:44:44.783Z,7.15
2023-04-10T18:47:11.863Z,8.20
2023-04-10T18:49:38.934Z,6.73
2023-04-10T18:52:06.001Z,8.73
2023-04-10T18:54:36.078Z,7.65
2023-04-10T18:57:03.545Z,9.82
2023-04-10T18:59:31.725Z,9.55
2023-04-10T19:01:58.895Z,9.03
2023-04-10T19:04:26.041Z,9.60
2023-04-10T19:06:53.195Z,8.18
2023-04-10T19:09:20.315Z,9.00
2023-04-10T19:11:47.351Z,8.85
2023-04-10T19:14:14.589Z,7.87
2023-04-10T19:16:41.622Z,8.85
2023-04-10T19:19:08.936Z,9.32
2023-04-10T19:21:36.116Z,10.05
2023-04-10T19:24:03.145Z,9.15
2023-04-10T19:26:30.200Z,9.77
2023-04-10T19:28:57.890Z,9.07
2023-04-10T19:31:27.603Z,9.57
2023-04-10T19:33:54.765Z,9.95
2023-04-10T19:36:23.249Z,10.68
2023-04-10T19:38:51.171Z,8.50
2023-04-10T19:41:18.282Z,9.70
2023-04-10T19:43:45.572Z,9.30
2023-04-10T19:46:16.922Z,8.55
2023-04-10T19:48:44.067Z,9.95
2023-04-10T19:51:11.273Z,8.43
2023-04-10T19:53:38.318Z,11.63
2023-04-10T19:56:06.156Z,8.52
2023-04-10T19:58:40.528Z,8.73
2023-04-10T20:01:09.272Z,8.07
2023-04-10T20:03:37.874Z,8.73
2023-04-10T20:06:07.416Z,9.70
2023-04-10T20:08:35.538Z,9.60
2023-04-10T20:11:06.383Z,10.07
2023-04-10T20:13:34.441Z,9.98
2023-04-10T20:16:01.925Z,8.57
2023-04-10T20:18:29.621Z,9.60
2023-04-10T20:20:56.667Z,11.25
2023-04-10T20:23:23.767Z,8.20
2023-04-10T20:25:50.847Z,8.23
2023-04-10T20:28:18.072Z,12.33
2023-04-10T20:30:45.372Z,10.60
2023-04-10T20:33:12.458Z,10.57
2023-04-10T20:35:39.672Z,15.13
2023-04-10T20:38:07.084Z,10.75
2023-04-10T20:40:34.756Z,11.10
2023-04-10T20:43:01.805Z,10.43
2023-04-10T20:45:29.073Z,11.20
2023-04-10T20:47:57.360Z,10.02
2023-04-10T20:50:24.450Z,10.55
2023-04-10T20:52:51.516Z,11.73
2023-04-10T20:55:18.816Z,7.03
2023-04-10T20:57:46.160Z,8.00
2023-04-10T21:00:13.542Z,9.57
2023-04-10T21:02:40.792Z,11.52
2023-04-10T21:05:08.335Z,7.13
2023-04-10T21:07:35.548Z,7.82
2023-04-10T21:10:02.816Z,7.25
2023-04-10T21:12:31.205Z,11.10
2023-04-10T21:14:58.321Z,4.25
2023-04-10T21:17:28.880Z,8.27
2023-04-10T21:19:55.932Z,6.93
2023-04-10T21:22:23.081Z,7.22
2023-04-10T21:24:50.258Z,8.43
2023-04-10T21:27:17.307Z,8.15
2023-04-10T21:29:45.073Z,7.10
2023-04-10T21:32:12.299Z,8.10
2023-04-10T21:34:39.396Z,8.55
2023-04-10T21:37:06.965Z,7.40
2023-04-10T21:39:34.019Z,9.25
2023-04-10T21:42:01.103Z,8.43
2023-04-10T21:44:28.212Z,7.95
2023-04-10T21:46:55.320Z,6.95
2023-04-10T21:49:22.335Z,8.10
2023-04-10T21:51:49.411Z,6.95
2023-04-10T21:54:16.440Z,8.57
2023-04-10T21:56:43.457Z,7.95
2023-04-10T21:59:10.946Z,7.68
2023-04-10T22:01:38.044Z,7.30
2023-04-10T22:04:05.623Z,9.02
2023-04-10T22:06:33.040Z,6.80
2023-04-10T22:09:00.177Z,7.93
2023-04-10T22:11:27.365Z,8.35
2023-04-10T22:13:54.879Z,6.32
2023-04-10T22:16:23.369Z,9.55
2023-04-10T22:18:50.585Z,9.97
2023-04-10T22:21:18.065Z,7.57
2023-04-10T22:23:45.188Z,6.30
2023-04-10T22:26:12.211Z,8.25
2023-04-10T22:28:39.278Z,7.75
2023-04-10T22:31:06.420Z,9.13
2023-04-10T22:33:33.574Z,6.90
2023-04-10T22:36:00.837Z,6.68
2023-04-10T22:38:27.914Z,6.55
2023-04-10T22:40:55.770Z,7.10
2023-04-10T22:43:22.937Z,6.80
2023-04-10T22:45:50.092Z,7.65
2023-04-10T22:48:17.211Z,6.38
2023-04-10T22:50:44.279Z,7.40
2023-04-10T22:53:11.520Z,7.72
2023-04-10T22:55:39.120Z,5.90
2023-04-10T22:58:07.103Z,6.78
2023-04-10T23:00:34.479Z,6.68
2023-04-10T23:03:02.911Z,7.10
2023-04-10T23:05:30.205Z,7.50
2023-04-10T23:07:58.101Z,7.03
2023-04-10T23:10:25.208Z,7.30
2023-04-10T23:12:52.241Z,7.45
2023-04-10T23:15:19.825Z,11.32
2023-04-10T23:17:46.967Z,7.20
2023-04-10T23:20:14.049Z,6.97
2023-04-10T23:22:41.112Z,8.38
2023-04-10T23:25:08.370Z,8.00
2023-04-10T23:27:35.622Z,7.43
2023-04-10T23:30:04.410Z,6.45
2023-04-10T23:32:31.497Z,8.40
2023-04-10T23:34:58.603Z,7.05
2023-04-10T23:37:26.016Z,7.68
2023-04-10T23:39:53.041Z,6.90
2023-04-10T23:42:20.131Z,5.78
2023-04-10T23:44:47.163Z,7.70
2023-04-10T23:47:14.253Z,6.68
2023-04-10T23:49:41.271Z,5.97
2023-04-10T23:52:09.943Z,7.03
2023-04-10T23:54:37.240Z,7.82
2023-04-10T23:57:04.247Z,6.27
2023-04-10T23:59:31.342Z,7.32
